createdAt,value
2023-03-30T00:00:24.363Z,5.97
2023-03-30T00:02:53.898Z,5.88
2023-03-30T00:05:23.733Z,6.03
2023-03-30T00:07:51.030Z,5.78
2023-03-30T00:10:19.259Z,6.68
2023-03-30T00:12:47.248Z,6.72
2023-03-30T00:15:16.531Z,7.18
2023-03-30T00:17:43.881Z,4.82
2023-03-30T00:20:11.903Z,5.07
2023-03-30T00:22:39.961Z,6.40
2023-03-30T00:25:08.821Z,5.32
2023-03-30T00:27:36.851Z,7.85
2023-03-30T00:30:08.074Z,6.07
2023-03-30T00:32:35.808Z,4.90
2023-03-30T00:35:03.121Z,5.60
2023-03-30T00:37:30.289Z,5.05
2023-03-30T00:39:57.458Z,4.72
2023-03-30T00:42:24.720Z,4.10
2023-03-30T00:45:01.411Z,5.03
2023-03-30T00:47:29.400Z,4.40
2023-03-30T00:49:56.761Z,6.03
2023-03-30T00:52:25.161Z,4.90
2023-03-30T00:54:53.311Z,4.65
2023-03-30T00:57:22.736Z,4.65
2023-03-30T00:59:52.342Z,6.78
2023-03-30T01:02:23.253Z,5.60
2023-03-30T01:04:53.335Z,4.70
2023-03-30T01:07:24.154Z,3.47
2023-03-30T01:09:52.974Z,5.28
2023-03-30T01:12:20.535Z,4.55
2023-03-30T01:14:48.321Z,4.88
2023-03-30T01:17:18.352Z,5.72
2023-03-30T01:20:14.797Z,4.20
2023-03-30T01:23:03.620Z,3.60
2023-03-30T01:25:50.090Z,3.40
2023-03-30T01:28:23.232Z,4.10
2023-03-30T01:31:19.741Z,4.35
2023-03-30T01:34:05.425Z,4.70
2023-03-30T01:36:48.624Z,4.55
2023-03-30T01:39:21.643Z,3.90
2023-03-30T01:41:48.697Z,5.15
2023-03-30T01:44:15.899Z,7.13
2023-03-30T01:46:48.752Z,4.55
2023-03-30T01:49:15.877Z,4.38
2023-03-30T01:51:49.240Z,6.45
2023-03-30T01:54:19.226Z,5.45
2023-03-30T01:57:06.414Z,3.80
2023-03-30T01:59:36.137Z,4.97
2023-03-30T02:02:07.134Z,5.50
2023-03-30T02:04:38.896Z,3.63
2023-03-30T02:07:11.766Z,3.83
2023-03-30T02:09:39.978Z,4.78
2023-03-30T02:12:07.910Z,5.13
2023-03-30T02:14:36.415Z,4.70
2023-03-30T02:17:15.193Z,5.85
2023-03-30T02:19:42.331Z,4.30
2023-03-30T02:22:09.484Z,4.03
2023-03-30T02:24:36.879Z,5.32
2023-03-30T02:27:04.568Z,4.47
2023-03-30T02:29:32.528Z,4.45
2023-03-30T02:32:00.630Z,5.03
2023-03-30T02:34:46.678Z,4.97
2023-03-30T02:37:32.666Z,4.72
2023-03-30T02:40:12.258Z,4.60
2023-03-30T02:42:39.386Z,3.60
2023-03-30T02:45:18.841Z,5.65
2023-03-30T02:47:54.839Z,6.88
2023-03-30T02:50:22.156Z,3.85
2023-03-30T02:52:54.657Z,5.07
2023-03-30T02:55:24.665Z,4.55
2023-03-30T02:58:04.115Z,4.82
2023-03-30T03:00:42.846Z,5.20
2023-03-30T03:03:14.970Z,4.30
2023-03-30T03:05:43.338Z,5.32
2023-03-30T03:08:13.469Z,7.13
2023-03-30T03:10:40.619Z,6.07
2023-03-30T03:13:08.325Z,5.55
2023-03-30T03:15:35.577Z,5.05
2023-03-30T03:18:02.949Z,6.00
2023-03-30T03:20:30.790Z,4.78
2023-03-30T03:22:57.933Z,5.57
2023-03-30T03:25:25.301Z,4.90
2023-03-30T03:27:52.413Z,5.13
2023-03-30T03:30:19.570Z,4.63
2023-03-30T03:32:47.181Z,4.78
2023-03-30T03:35:14.466Z,6.55
2023-03-30T03:37:41.648Z,6.82
2023-03-30T03:40:11.280Z,4.78
2023-03-30T03:42:38.826Z,5.85
2023-03-30T03:45:06.267Z,5.00
2023-03-30T03:47:33.454Z,6.28
2023-03-30T03:50:03.945Z,6.53
2023-03-30T03:52:31.399Z,5.00
2023-03-30T03:54:58.484Z,5.15
2023-03-30T03:57:25.799Z,7.18
2023-03-30T03:59:53.848Z,9.48
2023-03-30T04:02:23.830Z,6.43
2023-03-30T04:04:52.317Z,7.32
2023-03-30T04:07:20.076Z,9.50
2023-03-30T04:09:47.159Z,5.05
2023-03-30T04:12:14.678Z,6.95
2023-03-30T04:14:41.859Z,7.82
2023-03-30T04:17:09.151Z,6.43
2023-03-30T04:19:36.307Z,6.70
2023-03-30T04:22:06.124Z,4.82
2023-03-30T04:24:35.529Z,8.43
2023-03-30T04:27:03.353Z,6.45
2023-03-30T04:29:30.808Z,7.20
2023-03-30T04:32:02.743Z,9.35
2023-03-30T04:34:31.102Z,7.10
2023-03-30T04:36:58.470Z,5.65
2023-03-30T04:39:30.395Z,7.05
2023-03-30T04:41:57.821Z,6.25
2023-03-30T04:44:24.959Z,7.25
2023-03-30T04:46:52.020Z,6.63
2023-03-30T04:49:19.989Z,6.18
2023-03-30T04:51:47.107Z,7.22
2023-03-30T04:54:14.420Z,10.45
2023-03-30T04:56:41.610Z,6.05
2023-03-30T04:59:08.762Z,8.32
2023-03-30T05:01:35.972Z,6.70
2023-03-30T05:04:03.215Z,7.18
2023-03-30T05:06:30.837Z,6.05
2023-03-30T05:08:57.943Z,5.38
2023-03-30T05:11:25.306Z,5.28
2023-03-30T05:13:53.438Z,7.10
2023-03-30T05:16:22.066Z,7.07
2023-03-30T05:18:51.461Z,8.85
2023-03-30T05:21:18.970Z,7.85
2023-03-30T05:23:46.063Z,7.50
2023-03-30T05:26:13.366Z,6.63
2023-03-30T05:28:40.551Z,6.38
2023-03-30T05:31:08.037Z,9.32
2023-03-30T05:33:35.647Z,6.53
2023-03-30T05:36:02.802Z,6.32
2023-03-30T05:38:29.895Z,7.40
2023-03-30T05:40:57.166Z,11.10
2023-03-30T05:43:24.370Z,6.53
2023-03-30T05:45:51.548Z,6.97
2023-03-30T05:48:18.837Z,7.20
2023-03-30T05:50:48.130Z,11.55
2023-03-30T05:53:15.493Z,5.57
2023-03-30T05:55:46.813Z,10.05
2023-03-30T06:00:41.910Z,6.95
2023-03-30T06:03:09.500Z,6.40
2023-03-30T06:05:38.980Z,7.15
2023-03-30T06:08:08.117Z,5.03
2023-03-30T06:10:36.144Z,4.97
2023-03-30T06:13:03.511Z,6.15
2023-03-30T06:15:30.947Z,6.22
2023-03-30T06:17:59.341Z,6.53
2023-03-30T06:20:26.521Z,4.47
2023-03-30T06:22:53.625Z,7.97
2023-03-30T06:25:21.527Z,4.82
2023-03-30T06:27:48.624Z,7.00
2023-03-30T06:30:16.096Z,5.82
2023-03-30T06:32:43.590Z,6.80
2023-03-30T06:35:10.697Z,7.75
2023-03-30T06:37:37.823Z,8.60
2023-03-30T06:40:14.332Z,5.68
2023-03-30T06:42:42.140Z,4.35
2023-03-30T06:45:10.238Z,5.60
2023-03-30T06:47:37.600Z,4.88
2023-03-30T06:50:04.995Z,6.22
2023-03-30T06:52:35.028Z,4.88
2023-03-30T06:55:02.276Z,5.35
2023-03-30T06:57:29.461Z,3.45
2023-03-30T06:59:56.757Z,6.13
2023-03-30T07:02:24.069Z,5.03
2023-03-30T07:04:51.925Z,6.22
2023-03-30T07:07:19.040Z,5.22
2023-03-30T07:09:46.196Z,5.75
2023-03-30T07:12:13.292Z,5.13
2023-03-30T07:14:40.481Z,5.63
2023-03-30T07:17:07.893Z,6.43
2023-03-30T07:19:36.575Z,5.07
2023-03-30T07:22:04.118Z,4.72
2023-03-30T07:24:31.474Z,3.80
2023-03-30T07:26:58.578Z,6.00
2023-03-30T07:29:27.109Z,4.88
2023-03-30T07:31:56.621Z,7.85
2023-03-30T07:34:23.963Z,6.90
2023-03-30T07:36:51.140Z,6.22
2023-03-30T07:39:18.686Z,4.97
2023-03-30T07:41:45.828Z,4.53
2023-03-30T07:44:12.977Z,3.67
2023-03-30T07:46:41.175Z,6.97
2023-03-30T07:49:08.374Z,7.03
2023-03-30T07:51:35.491Z,4.85
2023-03-30T07:54:03.001Z,4.40
2023-03-30T07:56:30.262Z,6.53
2023-03-30T07:58:58.997Z,4.07
2023-03-30T08:01:28.008Z,5.00
2023-03-30T08:03:55.535Z,4.13
2023-03-30T08:06:23.340Z,7.45
2023-03-30T08:08:50.895Z,6.45
2023-03-30T08:11:18.050Z,7.40
2023-03-30T08:13:45.338Z,6.05
2023-03-30T08:16:12.983Z,5.60
2023-03-30T08:18:43.038Z,5.63
2023-03-30T08:21:11.018Z,6.95
2023-03-30T08:23:38.235Z,5.05
2023-03-30T08:26:05.413Z,5.78
2023-03-30T08:28:32.584Z,4.60
2023-03-30T08:31:07.333Z,5.60
2023-03-30T08:33:35.049Z,4.97
2023-03-30T08:36:02.229Z,7.50
2023-03-30T08:38:29.478Z,5.75
2023-03-30T08:40:56.761Z,5.93
2023-03-30T08:43:23.826Z,8.55
2023-03-30T08:45:51.530Z,4.53
2023-03-30T08:48:20.526Z,4.32
2023-03-30T08:50:53.569Z,4.93
2023-03-30T08:53:21.151Z,4.97
2023-03-30T08:55:57.054Z,5.40
2023-03-30T08:58:33.112Z,7.53
2023-03-30T09:01:00.423Z,4.28
2023-03-30T09:03:30.988Z,4.45
2023-03-30T09:06:17.100Z,4.03
2023-03-30T09:08:44.506Z,6.68
2023-03-30T09:11:14.899Z,4.95
2023-03-30T09:13:45.646Z,4.57
2023-03-30T09:16:31.642Z,3.97
2023-03-30T09:19:00.046Z,3.40
2023-03-30T09:21:29.142Z,4.85
2023-03-30T09:23:58.641Z,4.72
2023-03-30T09:26:34.528Z,3.97
2023-03-30T09:29:13.963Z,6.10
2023-03-30T09:31:44.378Z,4.47
2023-03-30T09:34:17.326Z,4.43
2023-03-30T09:36:55.162Z,6.35
2023-03-30T09:39:23.067Z,3.97
2023-03-30T09:41:54.436Z,6.18
2023-03-30T09:44:30.789Z,4.50
2023-03-30T09:46:59.163Z,4.35
2023-03-30T09:49:30.558Z,4.55
2023-03-30T09:52:08.016Z,4.57
2023-03-30T09:54:36.941Z,4.35
2023-03-30T09:57:04.516Z,4.47
2023-03-30T09:59:36.476Z,5.20
2023-03-30T10:02:31.377Z,6.22
2023-03-30T10:05:00.947Z,4.90
2023-03-30T10:07:38.291Z,5.85
2023-03-30T10:10:28.710Z,3.45
2023-03-30T10:12:56.865Z,6.80
2023-03-30T10:15:28.149Z,4.32
2023-03-30T10:20:37.233Z,4.75
2023-03-30T10:23:14.547Z,3.35
2023-03-30T10:25:42.470Z,6.35
2023-03-30T10:28:17.284Z,3.58
2023-03-30T10:30:51.135Z,4.22
2023-03-30T10:33:18.333Z,4.25
2023-03-30T10:35:48.090Z,5.95
2023-03-30T10:38:15.761Z,4.47
2023-03-30T10:40:44.447Z,3.78
2023-03-30T10:43:22.887Z,4.53
2023-03-30T10:45:54.138Z,4.25
2023-03-30T10:48:27.454Z,4.60
2023-03-30T10:50:54.513Z,2.67
2023-03-30T10:53:42.721Z,3.78
2023-03-30T10:56:18.919Z,4.00
2023-03-30T10:58:46.289Z,3.10
2023-03-30T11:01:27.054Z,3.83
2023-03-30T11:03:58.089Z,6.13
2023-03-30T11:06:28.464Z,4.22
2023-03-30T11:08:57.806Z,2.85
2023-03-30T11:11:32.590Z,3.20
2023-03-30T11:14:02.059Z,2.67
2023-03-30T11:16:37.034Z,3.55
2023-03-30T11:19:08.001Z,4.25
2023-03-30T11:21:39.752Z,3.65
2023-03-30T11:24:06.845Z,4.38
2023-03-30T11:26:45.933Z,3.13
2023-03-30T11:29:19.117Z,3.90
2023-03-30T11:31:56.986Z,3.92
2023-03-30T11:34:24.048Z,2.95
2023-03-30T11:36:55.758Z,5.30
2023-03-30T11:39:32.044Z,6.05
2023-03-30T11:42:05.818Z,3.30
2023-03-30T11:44:33.143Z,4.65
2023-03-30T11:47:06.389Z,3.40
2023-03-30T11:49:42.339Z,7.90
2023-03-30T11:52:09.404Z,4.22
2023-03-30T11:54:56.124Z,2.83
2023-03-30T11:57:45.664Z,3.65
2023-03-30T12:00:26.421Z,4.72
2023-03-30T12:03:09.607Z,4.10
2023-03-30T12:05:43.450Z,2.75
2023-03-30T12:08:21.085Z,2.97
2023-03-30T12:10:50.854Z,4.75
2023-03-30T12:13:19.021Z,4.18
2023-03-30T12:15:52.087Z,3.22
2023-03-30T12:18:25.033Z,4.50
2023-03-30T12:21:10.911Z,3.60
2023-03-30T12:23:48.250Z,3.15
2023-03-30T12:26:27.424Z,3.22
2023-03-30T12:29:26.074Z,3.38
2023-03-30T12:31:59.239Z,3.60
2023-03-30T12:34:32.207Z,3.55
2023-03-30T12:37:05.126Z,2.90
2023-03-30T12:39:45.050Z,2.80
2023-03-30T12:42:35.657Z,5.35
2023-03-30T12:45:21.601Z,2.37
2023-03-30T12:47:55.754Z,4.40
2023-03-30T12:50:32.414Z,3.67
2023-03-30T12:53:10.454Z,4.30
2023-03-30T12:55:43.788Z,3.33
2023-03-30T12:58:40.299Z,3.80
2023-03-30T13:01:07.405Z,3.33
2023-03-30T13:03:39.297Z,2.65
2023-03-30T13:06:11.161Z,4.55
2023-03-30T13:08:40.283Z,5.70
2023-03-30T13:11:13.423Z,2.95
2023-03-30T13:13:48.099Z,3.40
2023-03-30T13:16:15.525Z,4.22
2023-03-30T13:18:48.883Z,4.32
2023-03-30T13:21:20.563Z,2.85
2023-03-30T13:23:59.994Z,4.07
2023-03-30T13:26:35.088Z,4.40
2023-03-30T13:29:05.534Z,3.78
2023-03-30T13:31:38.583Z,3.17
2023-03-30T13:34:29.469Z,4.25
2023-03-30T13:37:05.870Z,6.15
2023-03-30T13:39:39.913Z,5.63
2023-03-30T13:42:08.888Z,5.60
2023-03-30T13:44:45.432Z,4.32
2023-03-30T13:47:31.216Z,5.53
2023-03-30T13:50:36.721Z,5.05
2023-03-30T13:53:08.929Z,4.43
2023-03-30T13:55:38.569Z,5.55
2023-03-30T13:58:08.273Z,3.83
2023-03-30T14:00:45.235Z,3.85
2023-03-30T14:03:27.418Z,5.72
2023-03-30T14:05:55.360Z,7.30
2023-03-30T14:08:22.443Z,6.32
2023-03-30T14:10:51.526Z,4.45
2023-03-30T14:13:18.816Z,6.20
2023-03-30T14:15:46.084Z,6.50
2023-03-30T14:18:20.827Z,5.78
2023-03-30T14:20:50.359Z,4.97
2023-03-30T14:23:32.855Z,5.28
2023-03-30T14:26:03.149Z,4.43
2023-03-30T14:28:32.394Z,4.45
2023-03-30T14:31:04.676Z,3.63
2023-03-30T14:33:35.338Z,5.05
2023-03-30T14:36:03.870Z,4.13
2023-03-30T14:38:37.336Z,4.43
2023-03-30T14:41:07.863Z,4.40
2023-03-30T14:43:39.449Z,4.15
2023-03-30T14:46:09.113Z,4.20
2023-03-30T14:48:37.753Z,3.55
2023-03-30T14:51:09.599Z,3.67
2023-03-30T14:53:36.863Z,4.60
2023-03-30T14:56:04.647Z,3.83
2023-03-30T14:58:32.804Z,4.38
2023-03-30T15:01:01.593Z,4.32
2023-03-30T15:03:33.874Z,4.68
2023-03-30T15:06:02.212Z,4.55
2023-03-30T15:08:31.643Z,5.15
2023-03-30T15:11:04.758Z,3.70
2023-03-30T15:13:34.363Z,5.70
2023-03-30T15:16:01.983Z,3.40
2023-03-30T15:18:29.930Z,3.33
2023-03-30T15:20:57.159Z,3.13
2023-03-30T15:23:25.322Z,4.60
2023-03-30T15:25:56.240Z,4.25
2023-03-30T15:28:23.371Z,4.47
2023-03-30T15:30:52.079Z,4.45
2023-03-30T15:33:40.620Z,3.78
2023-03-30T15:36:33.755Z,4.57
2023-03-30T15:39:01.088Z,6.55
2023-03-30T15:41:44.741Z,4.10
2023-03-30T15:44:13.379Z,5.35
2023-03-30T15:46:41.374Z,6.47
2023-03-30T15:49:11.041Z,4.72
2023-03-30T15:51:40.661Z,5.15
2023-03-30T15:54:12.903Z,4.13
2023-03-30T15:56:53.037Z,4.53
2023-03-30T15:59:21.398Z,6.03
2023-03-30T16:01:51.758Z,5.40
2023-03-30T16:04:19.597Z,5.00
2023-03-30T16:06:47.595Z,7.18
2023-03-30T16:09:16.003Z,3.83
2023-03-30T16:11:43.871Z,7.60
2023-03-30T16:14:12.783Z,6.03
2023-03-30T16:16:40.130Z,5.57
2023-03-30T16:19:14.346Z,5.53
2023-03-30T16:21:44.677Z,6.82
2023-03-30T16:24:12.436Z,6.57
2023-03-30T16:26:39.638Z,7.68
2023-03-30T16:29:11.738Z,6.95
2023-03-30T16:31:38.967Z,4.38
2023-03-30T16:34:06.111Z,6.07
2023-03-30T16:36:34.223Z,5.80
2023-03-30T16:39:01.515Z,5.53
2023-03-30T16:41:28.665Z,6.60
2023-03-30T16:43:55.905Z,6.05
2023-03-30T16:46:24.222Z,4.50
2023-03-30T16:48:51.414Z,6.30
2023-03-30T16:51:18.540Z,7.68
2023-03-30T16:53:45.647Z,5.32
2023-03-30T16:56:15.645Z,5.72
2023-03-30T16:58:42.728Z,6.18
2023-03-30T17:01:13.116Z,6.50
2023-03-30T17:03:40.712Z,5.88
2023-03-30T17:06:08.441Z,8.30
2023-03-30T17:08:35.574Z,9.10
2023-03-30T17:11:04.945Z,9.38
2023-03-30T17:13:32.606Z,6.90
2023-03-30T17:16:01.241Z,9.77
2023-03-30T17:18:28.494Z,8.68
2023-03-30T17:20:57.198Z,10.82
2023-03-30T17:23:25.663Z,7.53
2023-03-30T17:25:54.104Z,15.05
2023-03-30T17:28:28.376Z,7.05
2023-03-30T17:30:57.149Z,10.82
2023-03-30T17:33:24.492Z,8.23
2023-03-30T17:35:53.872Z,7.60
2023-03-30T17:38:21.983Z,7.68
2023-03-30T17:40:50.199Z,8.50
2023-03-30T17:43:17.595Z,10.13
2023-03-30T17:45:46.342Z,10.48
2023-03-30T17:48:17.537Z,7.78
2023-03-30T17:50:46.686Z,8.40
2023-03-30T17:53:20.371Z,9.43
2023-03-30T17:55:54.797Z,9.30
2023-03-30T17:58:33.010Z,9.40
2023-03-30T18:01:41.871Z,9.20
2023-03-30T18:04:19.658Z,9.18
2023-03-30T18:06:48.734Z,12.68
2023-03-30T18:09:16.458Z,12.88
2023-03-30T18:11:46.317Z,17.05
2023-03-30T18:14:13.587Z,12.55
2023-03-30T18:16:46.401Z,15.63
2023-03-30T18:19:22.555Z,18.50
2023-03-30T18:22:01.928Z,18.17
2023-03-30T18:24:40.726Z,13.50
2023-03-30T18:27:11.866Z,16.23
2023-03-30T18:29:38.943Z,19.17
2023-03-30T18:32:34.050Z,22.45
2023-03-30T18:35:10.499Z,24.02
2023-03-30T18:37:40.847Z,18.80
2023-03-30T18:40:16.338Z,20.40
2023-03-30T18:42:46.367Z,24.15
2023-03-30T18:45:15.526Z,24.52
2023-03-30T18:47:43.395Z,27.05
2023-03-30T18:50:15.208Z,31.60
2023-03-30T18:52:42.315Z,26.80
2023-03-30T18:55:09.710Z,21.73
2023-03-30T18:57:36.876Z,27.63
2023-03-30T19:00:08.700Z,26.88
2023-03-30T19:02:36.073Z,26.23
2023-03-30T19:05:03.448Z,22.42
2023-03-30T19:07:30.598Z,30.48
2023-03-30T19:09:57.761Z,31.17
2023-03-30T19:12:24.884Z,28.05
2023-03-30T19:14:52.025Z,28.65
2023-03-30T19:17:19.167Z,28.90
2023-03-30T19:19:46.380Z,29.52
2023-03-30T19:22:13.633Z,32.70
2023-03-30T19:24:40.771Z,35.03
2023-03-30T19:27:08.097Z,39.85
2023-03-30T19:29:36.059Z,38.03
2023-03-30T19:32:03.238Z,35.80
2023-03-30T19:34:30.397Z,38.85
2023-03-30T19:36:58.580Z,45.92
2023-03-30T19:39:27.218Z,40.45
2023-03-30T19:41:54.470Z,39.67
2023-03-30T19:44:22.089Z,37.72
2023-03-30T19:46:49.304Z,40.25
2023-03-30T19:49:16.620Z,39.30
2023-03-30T19:51:43.689Z,36.35
2023-03-30T19:54:10.836Z,37.50
2023-03-30T19:56:38.084Z,35.95
2023-03-30T19:59:05.256Z,40.55
2023-03-30T20:01:32.422Z,43.25
2023-03-30T20:03:59.901Z,34.40
2023-03-30T20:06:27.338Z,35.80
2023-03-30T20:08:54.984Z,40.00
2023-03-30T20:11:24.928Z,45.70
2023-03-30T20:13:53.900Z,39.67
2023-03-30T20:16:21.250Z,37.50
2023-03-30T20:18:52.463Z,40.08
2023-03-30T20:21:23.116Z,43.45
2023-03-30T20:23:50.195Z,40.42
2023-03-30T20:26:19.482Z,43.08
2023-03-30T20:28:47.396Z,44.00
2023-03-30T20:31:15.040Z,42.33
2023-03-30T20:33:42.274Z,37.75
2023-03-30T20:36:09.898Z,40.85
2023-03-30T20:38:39.637Z,41.65
2023-03-30T20:41:07.693Z,45.45
2023-03-30T20:43:55.762Z,40.28
2023-03-30T20:46:26.005Z,44.28
2023-03-30T20:49:01.968Z,38.08
2023-03-30T20:51:29.352Z,34.97
2023-03-30T20:53:56.550Z,37.10
2023-03-30T20:56:23.880Z,36.05
2023-03-30T20:58:51.289Z,35.08
2023-03-30T21:01:25.425Z,42.47
2023-03-30T21:03:57.749Z,39.83
2023-03-30T21:06:26.153Z,43.90
2023-03-30T21:08:54.156Z,41.35
2023-03-30T21:11:22.633Z,43.33
2023-03-30T21:13:52.593Z,48.03
2023-03-30T21:16:19.737Z,43.72
2023-03-30T21:18:46.931Z,38.67
2023-03-30T21:21:14.004Z,43.58
2023-03-30T21:23:41.527Z,44.28
2023-03-30T21:26:09.274Z,47.25
2023-03-30T21:28:36.898Z,44.67
2023-03-30T21:31:08.376Z,46.17
2023-03-30T21:33:36.139Z,51.63
2023-03-30T21:36:04.160Z,49.42
2023-03-30T21:38:31.631Z,44.20
2023-03-30T21:41:02.911Z,50.45
2023-03-30T21:46:10.714Z,58.95
2023-03-30T21:48:38.661Z,58.75
2023-03-30T21:51:11.556Z,59.05
2023-03-30T21:53:38.674Z,64.78
2023-03-30T21:56:07.323Z,69.07
2023-03-30T21:58:34.762Z,72.25
2023-03-30T22:01:11.738Z,68.05
2023-03-30T22:03:39.810Z,62.85
2023-03-30T22:06:08.319Z,67.43
2023-03-30T22:08:35.777Z,65.88
2023-03-30T22:11:04.294Z,65.90
2023-03-30T22:13:31.958Z,67.10
2023-03-30T22:16:00.370Z,69.03
2023-03-30T22:18:28.332Z,68.03
2023-03-30T22:20:58.492Z,68.82
2023-03-30T22:23:25.621Z,60.50
2023-03-30T22:25:52.792Z,56.10
2023-03-30T22:28:20.284Z,57.30
2023-03-30T22:30:47.444Z,51.10
2023-03-30T22:33:14.707Z,47.53
2023-03-30T22:35:42.685Z,58.55
2023-03-30T22:38:10.624Z,56.65
2023-03-30T22:40:39.527Z,52.75
2023-03-30T22:43:06.821Z,48.42
2023-03-30T22:45:34.004Z,48.97
2023-03-30T22:48:01.365Z,44.22
2023-03-30T22:50:29.759Z,50.70
2023-03-30T22:52:57.425Z,40.65
2023-03-30T22:55:25.067Z,32.05
2023-03-30T22:57:53.061Z,40.95
2023-03-30T23:00:21.080Z,38.20
2023-03-30T23:02:49.647Z,46.85
2023-03-30T23:05:17.463Z,41.20
2023-03-30T23:07:45.966Z,39.22
2023-03-30T23:10:15.371Z,40.42
2023-03-30T23:12:43.127Z,34.92
2023-03-30T23:15:10.748Z,34.97
2023-03-30T23:17:38.109Z,40.17
2023-03-30T23:20:06.560Z,38.65
2023-03-30T23:22:33.674Z,34.25
2023-03-30T23:25:00.960Z,29.80
2023-03-30T23:27:28.098Z,33.03
2023-03-30T23:29:55.733Z,35.00
2023-03-30T23:32:22.904Z,39.67
2023-03-30T23:34:49.988Z,39.30
2023-03-30T23:37:17.562Z,38.15
2023-03-30T23:39:44.758Z,33.90
2023-03-30T23:42:11.842Z,39.00
2023-03-30T23:44:38.968Z,43.97
2023-03-30T23:47:06.827Z,39.85
2023-03-30T23:49:33.996Z,48.58
2023-03-30T23:52:01.157Z,45.80
2023-03-30T23:54:31.517Z,40.72
2023-03-30T23:57:00.934Z,38.27
2023-03-30T23:59:28.064Z,43.35
